Daily Tabular Data
[Select Refresh to Update]


2/17/18
Time         Wind Dir   Wind Spd  Wind Gust     Hum In   Humidity    Temp In       Temp  Raw Barom   Tot Rain Wind Chill Heat Ix In Heat Index  Dew Point  DailyRain   HourRain   RainRate
                            mph        mph          %          %         F         F         in         in         F         F         F         F         in         in      in/hr
12:00am            54          0          4         28         31       70.8       55.0      29.26       1.93       55.0       69.9       54.3       24.9       0.00       0.00      0.000
12:30am            78          0          3         28         32       70.6       54.8      29.26       1.93       54.8       69.7       54.1       25.5       0.00       0.00      0.000
1:00am             91          3          4         28         30       70.5       56.2      29.26       1.93       56.2       69.6       55.4       25.2       0.00       0.00      0.000
1:30am             71          0          3         28         35       70.4       53.7      29.25       1.93       53.7       69.5       53.2       26.7       0.00       0.00      0.000
2:00am             80          0          3         28         31       70.2       54.6      29.25       1.93       54.6       69.3       53.9       24.6       0.00       0.00      0.000
2:30am             85          0          3         28         29       70.0       55.2      29.25       1.93       55.2       69.1       54.3       23.5       0.00       0.00      0.000
3:00am            113          0          3         28         31       69.8       55.6      29.25       1.93       55.6       68.9       54.9       25.5       0.00       0.00      0.000
3:30am             92          2          6         28         28       69.5       55.7      29.24       1.93       55.7       68.6       54.8       23.1       0.00       0.00      0.000
4:00am            103          3          3         27         29       70.0       54.3      29.24       1.93       54.3       69.0       53.4       22.7       0.00       0.00      0.000
4:30am            103          3          3         28         29       69.4       54.3      29.24       1.93       54.3       68.5       53.4       22.7       0.00       0.00     -0.010
5:00am            103          3          3         28         29       69.4       54.3      29.24       1.93       54.3       68.5       53.4       22.7       0.00       0.00     -0.010
5:30am            103          3          3         28         29       69.2       54.3      29.24       1.93       54.3       68.3       53.4       22.7       0.00       0.00     -0.010
6:00am            103          3          3         28         29       69.0       54.3      29.24       1.93       54.3       68.1       53.4       22.7       0.00       0.00     -0.010
6:30am            103          3          3         28         29       68.8       54.3      29.25       1.93       54.3       67.9       53.4       22.7       0.00       0.00     -0.010
7:00am            103          3          3         28         29       68.8       54.3      29.25       1.93       54.3       67.9       53.4       22.7       0.00       0.00     -0.010
7:30am            103          3          3         27         29       68.7       54.3      29.25       1.93       54.3       67.7       53.4       22.7       0.00       0.00     -0.010
8:00am             50          0          3         28         26       68.6       60.7      29.27       1.93       60.7       67.7       59.6       25.6       0.00       0.00      0.000
8:30am            284          0          0         26         27       70.2       61.0      29.28       1.93       61.0       69.1       60.0       26.8       0.00       0.00      0.000
9:00am            225          0          0         26         35       69.5       63.5      29.28       1.93       63.5       68.4       63.0       35.4       0.00       0.00      0.000
9:30am            276          0          0         24         30       72.8       65.6      29.29       1.93       65.6       71.6       64.8       33.4       0.00       0.00      0.000
10:00am           267          2          3         26         25       70.4       66.1      29.30       1.93       66.1       69.3       65.0       29.3       0.00       0.00      0.000
10:30am           230          0          4         27         22       69.9       67.9      29.30       1.93       67.9       68.9       66.6       27.7       0.00       0.00      0.000
11:00am           271          3          6         27         22       69.8       69.5      29.29       1.93       69.5       68.8       68.2       29.0       0.00       0.00      0.000
11:30am           245          0          3         27         33       69.8       71.0      29.29       1.93       71.0       68.8       70.4       40.5       0.00       0.00      0.000
12:00pm           222          0          8         27         25       69.9       70.6      29.27       1.93       70.6       68.9       69.5       33.1       0.00       0.00      0.000
12:30pm           269          4          9         28         24       70.0       72.0      29.26       1.93       72.0       69.1       70.8       33.3       0.00       0.00      0.000
1:00pm            230          2         10         28         23       70.3       71.6      29.25       1.93       71.6       69.4       70.4       31.9       0.00       0.00      0.000
1:30pm            282          3         11         29         22       70.4       71.3      29.23       1.93       71.3       69.5       70.0       30.5       0.00       0.00      0.000
2:00pm            289          5         11         29         23       70.6       70.8      29.22       1.93       70.8       69.7       69.6       31.2       0.00       0.00      0.000
2:30pm            247          0         11         30         22       70.7       70.7      29.21       1.93       70.7       69.9       69.4       30.0       0.00       0.00      0.000
3:00pm            232          0          8         30         24       70.8       71.0      29.21       1.93       71.0       70.0       69.8       32.4       0.00       0.00      0.000
3:30pm            257          0          8         30         23       71.0       72.2      29.20       1.93       72.2       70.2       71.0       32.4       0.00       0.00      0.000
4:00pm            267          1         11         30         25       71.1       70.6      29.20       1.93       70.6       70.3       69.5       33.1       0.00       0.00      0.000
4:30pm            268          3          8         30         24       71.2       70.8      29.19       1.93       70.8       70.4       69.6       32.3       0.00       0.00      0.000
5:00pm            265          2          9         30         29       71.3       69.5      29.19       1.93       69.5       70.5       68.6       35.9       0.00       0.00      0.000
5:30pm            255          4          8         31         41       71.4       66.2      29.20       1.93       66.2       70.7       66.2       41.8       0.00       0.00      0.000
6:00pm            268          1          7         31         44       71.5       64.1      29.20       1.93       64.1       70.8       64.4       41.8       0.00       0.00      0.000
6:30pm            273          0          2         31         44       71.5       62.6      29.20       1.93       62.6       70.8       62.9       40.4       0.00       0.00      0.000
7:00pm            279          0          1         31         46       71.6       61.5      29.20       1.93       61.5       70.9       61.9       40.5       0.00       0.00      0.000
7:30pm            283          0          0         31         48       71.6       60.5      29.20       1.93       60.5       70.9       61.1       40.7       0.00       0.00      0.000
8:00pm            283          0          0         31         46       71.6       59.7      29.20       1.93       59.7       70.9       60.1       38.9       0.00       0.00      0.000
8:30pm            283          0          0         31         58       71.6       62.9      29.20       1.93       62.9       70.9       64.5       47.9       0.00       0.00      0.000
9:00pm            283          0          0         31         49       71.5       57.8      29.20       1.93       57.8       70.8       58.5       38.8       0.00       0.00      0.000
9:30pm             90          2          3         31         44       71.5       58.6      29.20       1.93       58.6       70.8       58.9       36.8       0.00       0.00      0.000
10:00pm            85          0          3         31         70       71.4       60.0      29.20       1.93       60.0       70.7       63.0       50.2       0.00       0.00      0.000
10:30pm            85          0          1         31         64       71.4       60.0      29.20       1.93       60.0       70.7       62.3       47.8       0.00       0.00      0.000
11:00pm            85          0          1         31         42       71.3       60.7      29.19       1.93       60.7       70.6       60.8       37.5       0.00       0.00      0.000
11:30pm            82          0          2         31         47       71.2       58.8      29.19       1.93       58.8       70.5       59.3       38.6       0.00       0.00      0.000